Time;durP1;ratioP1;P1;durP2;ratioP2;P2;SDS_P1;SDS_P2;PMS_P1;PMS_P2;Temp;Humidity;BMP_temperature;BMP_pressure;BME280_temperature;BME280_humidity;BME280_pressure;Samples;Min_cycle;Max_cycle;Signal;HPM_P1;HPM_P2
2022/10/28 00:07:11;;;;;;;0.20;0.00;;;17.40;99.90;;;;;;26163768;22;20382;-69
2022/10/28 00:17:15;;;;;;;0.20;0.00;;;17.40;99.90;;;;;;26167886;22;20465;-69
2022/10/28 00:27:20;;;;;;;0.20;0.00;;;17.40;99.90;;;;;;26171489;22;20357;-70
2022/10/28 00:37:24;;;;;;;0.20;0.05;;;17.20;99.90;;;;;;26169513;22;20365;-70
2022/10/28 00:47:43;;;;;;;0.20;0.00;;;17.10;99.90;;;;;;26170114;22;20376;-70
2022/10/28 00:57:53;;;;;;;0.20;0.00;;;17.10;99.90;;;;;;26165900;22;20476;-70
2022/10/28 01:08:01;;;;;;;0.20;0.00;;;17.10;99.90;;;;;;26169060;22;20357;-70
2022/10/28 01:18:20;;;;;;;0.20;0.00;;;17.10;99.90;;;;;;26164053;22;20397;-70
2022/10/28 01:28:43;;;;;;;0.20;0.00;;;17.00;99.90;;;;;;26166085;22;20357;-70
2022/10/28 01:38:52;;;;;;;0.20;0.00;;;16.70;99.90;;;;;;26164638;22;20376;-69
2022/10/28 01:49:00;;;;;;;0.20;0.00;;;16.60;99.90;;;;;;26164095;22;21009;-68
2022/10/28 01:59:08;;;;;;;0.20;0.00;;;16.50;99.90;;;;;;26164649;22;20380;-69
2022/10/28 02:09:23;;;;;;;0.20;0.00;;;16.40;99.90;;;;;;26161968;22;20372;-69
2022/10/28 02:19:37;;;;;;;0.20;0.00;;;16.60;99.90;;;;;;26163079;22;20402;-70
2022/10/28 02:29:45;;;;;;;0.20;0.00;;;16.50;99.90;;;;;;26161168;22;20356;-71
2022/10/28 02:39:57;;;;;;;0.20;0.00;;;16.70;99.90;;;;;;26163590;22;20373;-69
2022/10/28 02:50:03;;;;;;;0.20;0.00;;;16.80;99.90;;;;;;26163691;22;20360;-69
2022/10/28 03:00:11;;;;;;;0.20;0.00;;;16.70;99.90;;;;;;26164015;22;20364;-69
2022/10/28 03:10:15;;;;;;;0.20;0.10;;;16.50;99.90;;;;;;26163919;22;20368;-69
2022/10/28 03:20:20;;;;;;;0.20;0.00;;;16.20;99.90;;;;;;26162116;22;20368;-68
2022/10/28 03:30:24;;;;;;;0.20;0.10;;;16.00;99.90;;;;;;26163452;22;20439;-69
2022/10/28 03:40:29;;;;;;;0.20;0.00;;;15.70;99.90;;;;;;26160970;22;20356;-69
2022/10/28 03:50:33;;;;;;;0.20;0.00;;;15.80;99.90;;;;;;26167729;22;20380;-68
2022/10/28 04:00:38;;;;;;;0.20;0.10;;;15.60;99.90;;;;;;26169990;22;20368;-70
2022/10/28 04:10:43;;;;;;;0.20;0.00;;;15.60;99.90;;;;;;26171828;22;20368;-70
2022/10/28 04:20:51;;;;;;;0.20;0.00;;;15.40;99.90;;;;;;26170964;22;20391;-70
2022/10/28 04:30:55;;;;;;;0.20;0.00;;;15.30;99.90;;;;;;26166249;22;20357;-70
2022/10/28 04:41:00;;;;;;;0.20;0.10;;;15.10;99.90;;;;;;26169105;22;20353;-69
2022/10/28 04:51:04;;;;;;;0.20;0.00;;;15.10;99.90;;;;;;26166070;22;20353;-69
2022/10/28 05:01:10;;;;;;;0.20;0.00;;;15.20;99.90;;;;;;26164511;22;20363;-68
2022/10/28 05:11:14;;;;;;;0.20;0.00;;;15.10;99.90;;;;;;26159598;22;20364;-71
2022/10/28 05:21:19;;;;;;;0.20;0.00;;;15.00;99.90;;;;;;26161966;22;20437;-69
2022/10/28 05:31:23;;;;;;;0.20;0.10;;;15.10;99.90;;;;;;26157980;22;20372;-69
2022/10/28 05:41:28;;;;;;;0.20;0.00;;;15.20;99.90;;;;;;26161783;22;20390;-69
2022/10/28 05:51:34;;;;;;;0.20;0.00;;;15.10;99.90;;;;;;26156818;22;20368;-70
2022/10/28 06:01:40;;;;;;;0.20;0.00;;;15.50;99.90;;;;;;26156697;22;20357;-69
2022/10/28 06:11:43;;;;;;;0.20;0.03;;;16.00;99.90;;;;;;26158390;22;20444;-69
2022/10/28 06:21:49;;;;;;;0.20;0.00;;;16.20;99.90;;;;;;26161899;22;20368;-72
2022/10/28 10:17:41;;;;;;;0.20;0.00;;;20.60;99.90;;;;;;25472776;22;2199520;-71
2022/10/28 10:27:51;;;;;;;0.20;0.10;;;21.60;99.90;;;;;;25566663;23;20388;-69
2022/10/28 10:38:00;;;;;;;0.20;0.00;;;21.90;99.90;;;;;;25563510;23;20465;-72
2022/10/28 10:48:12;;;;;;;0.20;0.10;;;22.20;99.90;;;;;;25562253;23;21253;-71
2022/10/28 10:58:20;;;;;;;0.30;0.30;;;21.90;99.90;;;;;;25563675;23;20439;-71
2022/10/28 11:08:43;;;;;;;0.20;0.10;;;22.40;99.90;;;;;;25557094;23;20377;-71
2022/10/28 11:18:50;;;;;;;0.20;0.00;;;22.70;99.90;;;;;;25537261;23;20433;-71
2022/10/28 11:29:10;;;;;;;0.20;0.03;;;23.10;99.90;;;;;;25535694;23;20377;-72
2022/10/28 11:39:21;;;;;;;0.20;0.00;;;24.00;99.90;;;;;;25530942;23;20440;-70
2022/10/28 11:49:57;;;;;;;0.60;0.60;;;23.60;99.90;;;;;;25533408;23;20377;-72
2022/10/28 12:00:22;;;;;;;0.20;0.00;;;24.00;99.90;;;;;;25527461;23;21593;-70
2022/10/28 12:10:45;;;;;;;0.20;0.00;;;24.30;99.90;;;;;;25530238;23;20400;-71
2022/10/28 12:20:56;;;;;;;0.20;0.00;;;24.50;99.90;;;;;;25529747;23;20361;-70
2022/10/28 12:31:02;;;;;;;0.20;0.03;;;24.80;99.90;;;;;;25503469;23;20385;-69
2022/10/28 12:41:14;;;;;;;0.20;0.00;;;24.50;99.90;;;;;;25496643;23;20361;-71
2022/10/28 12:51:25;;;;;;;0.20;0.00;;;25.20;99.90;;;;;;25527861;23;20381;-69
2022/10/28 13:01:34;;;;;;;0.20;0.00;;;24.40;99.90;;;;;;25526663;23;20370;-70
2022/10/28 13:11:54;;;;;;;0.20;0.00;;;23.70;99.90;;;;;;25525400;23;20370;-70
2022/10/28 13:22:34;;;;;;;0.20;0.00;;;23.90;99.90;;;;;;25525320;23;20380;-70
2022/10/28 13:33:04;;;;;;;0.20;0.10;;;24.50;99.90;;;;;;25528893;23;20377;-71
2022/10/28 13:43:21;;;;;;;0.20;0.00;;;25.30;99.90;;;;;;25528101;23;20369;-70
2022/10/28 13:53:55;;;;;;;0.20;0.00;;;25.90;99.90;;;;;;25501476;23;20408;-70
2022/10/28 14:04:14;;;;;;;0.70;0.70;;;26.80;99.90;;;;;;25527597;23;20366;-72
2022/10/28 14:14:20;;;;;;;0.20;0.00;;;26.90;99.90;;;;;;25502842;23;20377;-71
2022/10/28 14:24:36;;;;;;;0.20;0.00;;;26.40;99.90;;;;;;25527641;23;20361;-68
2022/10/28 14:34:45;;;;;;;0.20;0.00;;;25.40;99.90;;;;;;25522084;23;20373;-68
2022/10/28 14:45:06;;;;;;;0.20;0.00;;;24.70;99.90;;;;;;25526070;23;20392;-72
2022/10/28 14:55:22;;;;;;;0.20;0.03;;;25.30;99.90;;;;;;25533243;23;20401;-71
2022/10/28 15:05:32;;;;;;;0.20;0.00;;;24.70;99.90;;;;;;25530556;23;20368;-71
2022/10/28 15:15:35;;;;;;;0.20;0.00;;;22.70;99.90;;;;;;25504507;23;21468;-70
2022/10/28 15:25:41;;;;;;;0.20;0.00;;;22.20;99.90;;;;;;25529981;23;20372;-71
2022/10/28 15:35:45;;;;;;;0.20;0.00;;;21.80;99.90;;;;;;25531472;23;20392;-70
2022/10/28 15:45:50;;;;;;;0.20;0.00;;;21.70;99.90;;;;;;25532408;23;20381;-70
2022/10/28 15:56:18;;;;;;;0.20;0.00;;;21.50;99.90;;;;;;25532364;23;20391;-70
2022/10/28 16:06:41;;;;;;;0.20;0.00;;;21.40;99.90;;;;;;25531808;23;20368;-73
2022/10/28 16:16:47;;;;;;;0.20;0.00;;;21.40;99.90;;;;;;25503080;23;20389;-71
2022/10/28 16:26:52;;;;;;;0.20;0.10;;;21.20;99.90;;;;;;25532413;23;20365;-71
2022/10/28 16:36:56;;;;;;;0.20;0.00;;;20.80;99.90;;;;;;25503896;23;20396;-72
2022/10/28 16:47:20;;;;;;;0.20;0.00;;;20.70;99.90;;;;;;25529886;23;20400;-73
2022/10/28 16:57:25;;;;;;;0.20;0.00;;;20.90;99.90;;;;;;25526994;23;20373;-71
2022/10/28 17:07:39;;;;;;;0.20;0.00;;;20.90;99.90;;;;;;25502451;23;20424;-71
2022/10/28 17:17:43;;;;;;;0.20;0.00;;;20.70;99.90;;;;;;25282969;23;20373;-72
2022/10/28 17:27:49;;;;;;;0.20;0.00;;;20.60;99.90;;;;;;25307956;23;20431;-71
2022/10/28 17:37:52;;;;;;;0.20;0.00;;;20.50;99.90;;;;;;25283779;23;20364;-71
2022/10/28 17:48:01;;;;;;;0.20;0.00;;;20.20;99.90;;;;;;25280783;23;20380;-74
2022/10/28 17:58:06;;;;;;;0.20;0.00;;;20.20;99.90;;;;;;25284083;23;20368;-70
2022/10/28 18:08:11;;;;;;;0.20;0.00;;;19.40;99.90;;;;;;25292001;23;20373;-70
2022/10/28 18:18:15;;;;;;;0.20;0.10;;;18.80;99.90;;;;;;25518878;23;20385;-70
2022/10/28 18:28:22;;;;;;;0.20;0.00;;;18.60;99.90;;;;;;25523531;23;20369;-70
2022/10/28 18:38:26;;;;;;;0.20;0.00;;;18.30;99.90;;;;;;25530103;23;20379;-71
2022/10/28 18:48:31;;;;;;;0.20;0.00;;;18.20;99.90;;;;;;25530648;23;20377;-71
2022/10/28 18:58:35;;;;;;;0.20;0.10;;;17.80;99.90;;;;;;25505845;23;20401;-69
2022/10/28 19:08:41;;;;;;;0.20;0.00;;;17.80;99.90;;;;;;25529400;23;20493;-69
2022/10/28 19:19:04;;;;;;;0.20;0.00;;;17.40;99.90;;;;;;25531602;23;20377;-70
2022/10/28 19:29:11;;;;;;;0.20;0.00;;;17.40;99.90;;;;;;25526265;23;20380;-70
2022/10/28 19:39:18;;;;;;;0.20;0.10;;;17.40;99.90;;;;;;25530777;23;20748;-71
2022/10/28 19:49:34;;;;;;;0.20;0.00;;;17.00;99.90;;;;;;25531272;23;20392;-71
2022/10/28 20:10:28;;;;;;;0.20;0.10;;;16.80;99.90;;;;;;25523525;23;20377;-69
2022/10/28 20:21:14;;;;;;;0.20;0.00;;;16.90;99.90;;;;;;25530717;23;20393;-70
2022/10/28 20:31:32;;;;;;;0.20;0.00;;;16.60;99.90;;;;;;25529692;23;20452;-71
2022/10/28 20:41:43;;;;;;;0.20;0.08;;;16.70;99.90;;;;;;25503788;23;20365;-71
2022/10/28 20:51:51;;;;;;;0.20;0.10;;;16.80;99.90;;;;;;25503279;23;20373;-71
2022/10/28 21:02:04;;;;;;;0.20;0.00;;;16.70;99.90;;;;;;25528457;23;20368;-71
2022/10/28 21:12:38;;;;;;;0.20;0.00;;;16.90;99.90;;;;;;25525379;23;20389;-71
2022/10/28 21:23:17;;;;;;;0.20;0.10;;;16.80;99.90;;;;;;25477476;23;20421;-69
2022/10/28 21:33:59;;;;;;;0.20;0.08;;;16.50;99.90;;;;;;25477212;23;20633;-71
2022/10/28 21:44:13;;;;;;;0.20;0.00;;;16.20;99.90;;;;;;25528049;23;20396;-71
2022/10/28 21:54:52;;;;;;;0.20;0.00;;;16.20;99.90;;;;;;25527658;23;20381;-73
2022/10/28 22:05:16;;;;;;;0.20;0.00;;;15.90;99.90;;;;;;25524188;23;20370;-70
2022/10/28 22:15:23;;;;;;;0.20;0.10;;;15.90;99.90;;;;;;25529717;23;20384;-69
2022/10/28 22:25:27;;;;;;;0.20;0.00;;;15.90;99.90;;;;;;25529879;23;20373;-70
2022/10/28 22:35:57;;;;;;;0.20;0.00;;;15.70;99.90;;;;;;25530015;23;20393;-71
2022/10/28 22:46:19;;;;;;;0.20;0.00;;;15.50;99.90;;;;;;25531136;23;20368;-70
2022/10/28 22:56:25;;;;;;;0.20;0.00;;;15.70;99.90;;;;;;25531459;23;20369;-70
2022/10/28 23:06:30;;;;;;;0.20;0.10;;;15.50;99.90;;;;;;25531908;23;20384;-71
2022/10/28 23:16:35;;;;;;;0.20;0.10;;;15.40;99.90;;;;;;25538913;23;20389;-69
2022/10/28 23:26:59;;;;;;;0.20;0.10;;;15.40;99.90;;;;;;25537631;23;20361;-69
2022/10/28 23:37:04;;;;;;;0.20;0.00;;;15.30;99.90;;;;;;25538817;23;20373;-70
2022/10/28 23:47:08;;;;;;;0.20;0.00;;;15.00;99.90;;;;;;25537337;23;20384;-69
2022/10/28 23:57:13;;;;;;;0.20;0.10;;;15.00;99.90;;;;;;25537768;23;20369;-69
